CheckWX is a tool to help pilots better visualize weather data.  It is not intended as a substitute for an official pre-flight weather briefing.

08:18:43 UTC

WMKN TAF
Sultan Mahmud Airport
Kuala Terengganu, Malaysia
TAF WMKN 190500Z 1906/2006 05006KT 9999 FEW018 BKN300

Mar-19@
06:00 UTC

Mar-19 @ 06:00 UTC

Mar-20@
06:00 UTC

Mar-20 @ 06:00 UTC

TAF WMKN 190500Z 1906/2006 05006KT 9999 FEW018 BKN300
Wind
  • 050° at 6 KTS
Cloud Levels
  • Few at 1,800' AGL
  • Broken at 30,000' AGL